Time;durP1;ratioP1;P1;durP2;ratioP2;P2;SDS_P1;SDS_P2;PMS_P1;PMS_P2;Temp;Humidity;BMP_temperature;BMP_pressure;BME280_temperature;BME280_humidity;BME280_pressure;Samples;Min_cycle;Max_cycle;Signal;HPM_P1;HPM_P2
2023/12/22 00:01:55;;;;;;;7.97;0.80;;;;;;;;;;4996755;28;20040;-73
2023/12/22 00:04:24;;;;;;;4.37;1.27;;;;;;;;;;5029808;28;20049;-71
2023/12/22 00:06:51;;;;;;;4.53;1.17;;;;;;;;;;5011361;28;20040;-70
2023/12/22 00:09:18;;;;;;;6.97;1.10;;;;;;;;;;5026939;28;20025;-71
2023/12/22 00:11:47;;;;;;;5.97;1.00;;;;;;;;;;5011583;28;20033;-71
2023/12/22 00:14:14;;;;;;;4.07;1.07;;;;;;;;;;5037352;28;20574;-70
2023/12/22 00:16:40;;;;;;;14.00;1.60;;;;;;;;;;4996068;28;20326;-67
2023/12/22 00:19:06;;;;;;;10.47;1.20;;;;;;;;;;5030871;28;20112;-69
2023/12/22 00:21:32;;;;;;;5.13;0.87;;;;;;;;;;5014865;28;20422;-70
2023/12/22 00:24:00;;;;;;;7.00;1.20;;;;;;;;;;5029603;28;20087;-70
2023/12/22 00:26:26;;;;;;;8.13;0.90;;;;;;;;;;5012190;28;20034;-68
2023/12/22 00:28:53;;;;;;;8.63;1.30;;;;;;;;;;5010294;28;20025;-71
2023/12/22 00:31:22;;;;;;;9.70;1.20;;;;;;;;;;5028948;28;20037;-70
2023/12/22 00:33:49;;;;;;;5.70;1.40;;;;;;;;;;5033112;28;20025;-71
2023/12/22 00:36:17;;;;;;;6.97;1.17;;;;;;;;;;5023027;28;20029;-70
2023/12/22 00:38:43;;;;;;;6.43;1.10;;;;;;;;;;5029804;28;20029;-68
2023/12/22 00:41:10;;;;;;;7.27;1.30;;;;;;;;;;5017432;28;20455;-71
2023/12/22 00:43:37;;;;;;;4.37;0.83;;;;;;;;;;5011952;28;20017;-69
2023/12/22 00:46:03;;;;;;;9.17;1.60;;;;;;;;;;5010278;28;20087;-71
2023/12/22 00:48:28;;;;;;;7.17;1.37;;;;;;;;;;5026989;28;20021;-70
2023/12/22 00:50:54;;;;;;;9.27;1.90;;;;;;;;;;5026444;28;20052;-71
2023/12/22 00:53:19;;;;;;;6.33;1.07;;;;;;;;;;5040841;28;20108;-70
2023/12/22 00:55:46;;;;;;;15.17;1.63;;;;;;;;;;5037378;28;20453;-69
2023/12/22 00:58:11;;;;;;;11.27;1.67;;;;;;;;;;5046795;28;20021;-70
2023/12/22 01:00:37;;;;;;;7.60;1.27;;;;;;;;;;5027705;28;20025;-71
2023/12/22 01:03:03;;;;;;;11.23;2.10;;;;;;;;;;5030079;28;20583;-70
2023/12/22 01:05:28;;;;;;;8.97;1.90;;;;;;;;;;5033132;28;20261;-71
2023/12/22 01:07:56;;;;;;;11.20;1.50;;;;;;;;;;5032514;28;20040;-69
2023/12/22 01:10:22;;;;;;;14.63;2.43;;;;;;;;;;5030398;28;20033;-69
2023/12/22 01:12:48;;;;;;;14.83;1.67;;;;;;;;;;5032233;28;20532;-70
2023/12/22 01:15:14;;;;;;;4.80;1.47;;;;;;;;;;5033506;28;20591;-69
2023/12/22 01:17:40;;;;;;;11.97;2.30;;;;;;;;;;5015308;28;20063;-70
2023/12/22 01:20:07;;;;;;;14.97;1.90;;;;;;;;;;5016564;28;20465;-70
2023/12/22 01:22:34;;;;;;;10.20;1.40;;;;;;;;;;5031451;28;20175;-70
2023/12/22 01:25:01;;;;;;;6.50;1.50;;;;;;;;;;5032946;28;20132;-70
2023/12/22 01:27:27;;;;;;;9.80;1.13;;;;;;;;;;5029156;28;20037;-70
2023/12/22 01:29:52;;;;;;;7.43;1.70;;;;;;;;;;5047746;28;20029;-70
2023/12/22 01:32:18;;;;;;;3.97;1.50;;;;;;;;;;5032635;28;20496;-67
2023/12/22 01:34:43;;;;;;;9.90;1.40;;;;;;;;;;5031492;28;20033;-66
2023/12/22 01:37:09;;;;;;;16.13;2.30;;;;;;;;;;5031979;28;20025;-71
2023/12/22 01:39:35;;;;;;;6.83;1.57;;;;;;;;;;5043643;28;20485;-70
2023/12/22 01:42:00;;;;;;;15.23;1.50;;;;;;;;;;5034970;28;20025;-71
2023/12/22 01:44:26;;;;;;;11.30;2.07;;;;;;;;;;5035578;28;20029;-70
2023/12/22 01:46:51;;;;;;;5.30;1.80;;;;;;;;;;5030793;28;20052;-69
2023/12/22 01:49:17;;;;;;;7.23;1.53;;;;;;;;;;5031220;28;20787;-70
2023/12/22 01:51:44;;;;;;;8.10;1.73;;;;;;;;;;5032200;28;20037;-71
2023/12/22 01:54:15;;;;;;;12.87;1.50;;;;;;;;;;5032844;28;20030;-70
2023/12/22 01:56:42;;;;;;;12.23;1.87;;;;;;;;;;5033279;28;20026;-70
2023/12/22 01:59:08;;;;;;;8.90;2.10;;;;;;;;;;5015060;28;20069;-69
2023/12/22 02:01:35;;;;;;;9.13;2.03;;;;;;;;;;5031946;28;20499;-68
2023/12/22 02:04:02;;;;;;;11.43;1.43;;;;;;;;;;5031036;28;20049;-72
2023/12/22 02:06:30;;;;;;;9.93;2.00;;;;;;;;;;5030895;28;20524;-69
2023/12/22 02:08:56;;;;;;;7.63;1.23;;;;;;;;;;5012658;28;20469;-68
2023/12/22 02:11:22;;;;;;;7.40;1.53;;;;;;;;;;5030573;28;20040;-70
2023/12/22 02:13:48;;;;;;;12.20;1.87;;;;;;;;;;5013939;28;20033;-69
2023/12/22 02:16:22;;;;;;;7.70;1.87;;;;;;;;;;5043706;28;20029;-70
2023/12/22 02:18:52;;;;;;;10.13;1.43;;;;;;;;;;5036294;28;20548;-68
2023/12/22 02:21:18;;;;;;;8.33;1.63;;;;;;;;;;5025226;28;20053;-69
2023/12/22 02:23:44;;;;;;;8.50;1.83;;;;;;;;;;5031088;28;20433;-69
2023/12/22 02:26:36;;;;;;;12.53;1.43;;;;;;;;;;5050047;28;20037;-70
2023/12/22 02:29:02;;;;;;;;;;;;;;;;;;5014547;28;20189;-71
2023/12/22 02:31:37;;;;;;;5.63;1.83;;;;;;;;;;5044196;28;19916;-69
2023/12/22 02:34:08;;;;;;;9.83;1.57;;;;;;;;;;5023231;28;20029;-69
2023/12/22 02:36:36;;;;;;;11.33;1.00;;;;;;;;;;5008496;28;20032;-70
2023/12/22 02:39:04;;;;;;;3.43;1.20;;;;;;;;;;5030377;28;20069;-71
2023/12/22 02:41:30;;;;;;;4.93;1.70;;;;;;;;;;5030638;28;20082;-69
2023/12/22 02:43:55;;;;;;;9.40;1.30;;;;;;;;;;5030084;28;20022;-69
2023/12/22 02:46:21;;;;;;;6.30;1.77;;;;;;;;;;5049332;28;20369;-70
2023/12/22 02:48:46;;;;;;;5.07;0.80;;;;;;;;;;5023486;28;20393;-69
2023/12/22 02:51:12;;;;;;;11.10;1.60;;;;;;;;;;5032531;28;20025;-71
2023/12/22 02:53:37;;;;;;;5.87;1.43;;;;;;;;;;5014989;28;20032;-69
2023/12/22 02:56:04;;;;;;;2.83;1.30;;;;;;;;;;5033712;28;20036;-69
2023/12/22 02:58:30;;;;;;;6.77;1.63;;;;;;;;;;5021637;28;20028;-71
2023/12/22 03:00:55;;;;;;;11.37;1.50;;;;;;;;;;5024616;28;20480;-69
2023/12/22 03:03:22;;;;;;;11.83;1.60;;;;;;;;;;5040265;28;20146;-69
2023/12/22 03:05:48;;;;;;;15.93;1.90;;;;;;;;;;5030925;28;20025;-70
2023/12/22 03:08:13;;;;;;;8.83;1.70;;;;;;;;;;5031311;28;20021;-69
2023/12/22 03:10:39;;;;;;;10.50;2.23;;;;;;;;;;5030423;28;20024;-70
2023/12/22 03:13:04;;;;;;;4.87;1.57;;;;;;;;;;5030933;28;20091;-70
2023/12/22 03:15:30;;;;;;;7.07;1.17;;;;;;;;;;5048102;28;20029;-69
2023/12/22 03:17:55;;;;;;;9.83;1.60;;;;;;;;;;5030640;28;20103;-70
2023/12/22 03:20:21;;;;;;;11.30;1.73;;;;;;;;;;5029396;28;20539;-69
2023/12/22 03:22:46;;;;;;;9.77;1.10;;;;;;;;;;5029663;28;20067;-75
2023/12/22 03:25:12;;;;;;;8.73;1.30;;;;;;;;;;5029864;28;20569;-70
2023/12/22 03:27:38;;;;;;;10.50;2.03;;;;;;;;;;5030024;28;20049;-69
2023/12/22 03:30:04;;;;;;;6.80;1.57;;;;;;;;;;5015535;28;20098;-71
2023/12/22 03:32:30;;;;;;;10.40;1.70;;;;;;;;;;5049629;28;20029;-71
2023/12/22 03:34:55;;;;;;;9.17;1.57;;;;;;;;;;5050136;28;20027;-68
2023/12/22 03:37:21;;;;;;;9.53;1.80;;;;;;;;;;5031489;28;20035;-71
2023/12/22 03:39:46;;;;;;;12.27;1.70;;;;;;;;;;5049603;28;20029;-69
2023/12/22 03:42:12;;;;;;;10.97;2.00;;;;;;;;;;5031740;28;20128;-68
2023/12/22 03:44:37;;;;;;;17.87;2.20;;;;;;;;;;5041261;28;20025;-69
2023/12/22 03:47:04;;;;;;;11.67;1.70;;;;;;;;;;5011773;28;20029;-68
2023/12/22 03:49:30;;;;;;;9.27;1.77;;;;;;;;;;5010948;28;20080;-71
2023/12/22 03:51:55;;;;;;;10.77;1.80;;;;;;;;;;5029001;28;20026;-69
2023/12/22 03:54:21;;;;;;;11.40;2.17;;;;;;;;;;5011531;28;20489;-70
2023/12/22 03:56:46;;;;;;;17.03;1.93;;;;;;;;;;5011602;28;20120;-69
2023/12/22 03:59:13;;;;;;;12.80;1.77;;;;;;;;;;5012223;28;20033;-70
2023/12/22 04:01:38;;;;;;;13.07;1.90;;;;;;;;;;5045968;28;20361;-70
2023/12/22 04:04:04;;;;;;;10.00;1.77;;;;;;;;;;5014322;28;20064;-70
2023/12/22 04:06:29;;;;;;;15.57;1.97;;;;;;;;;;5011353;28;20436;-70
2023/12/22 04:08:55;;;;;;;13.50;2.13;;;;;;;;;;5011329;28;20206;-70
2023/12/22 04:11:21;;;;;;;10.60;1.47;;;;;;;;;;5029044;28;20052;-68
2023/12/22 04:13:46;;;;;;;17.20;2.67;;;;;;;;;;5025897;28;20543;-69
2023/12/22 04:16:12;;;;;;;7.30;1.63;;;;;;;;;;5028911;28;20104;-70
2023/12/22 04:18:37;;;;;;;15.47;2.17;;;;;;;;;;5027677;28;20385;-70
2023/12/22 04:21:03;;;;;;;7.83;1.30;;;;;;;;;;5027584;28;20029;-69
2023/12/22 04:23:28;;;;;;;17.33;2.37;;;;;;;;;;5028792;28;20018;-69
2023/12/22 04:25:54;;;;;;;8.83;1.27;;;;;;;;;;5027814;28;20099;-69
2023/12/22 04:28:19;;;;;;;15.93;2.17;;;;;;;;;;5034438;28;20031;-70
2023/12/22 04:30:45;;;;;;;8.77;1.50;;;;;;;;;;5034375;28;20033;-70
2023/12/22 04:33:11;;;;;;;6.73;2.53;;;;;;;;;;5035534;28;20551;-68
2023/12/22 04:35:36;;;;;;;13.60;1.60;;;;;;;;;;5035464;28;20377;-67
2023/12/22 04:38:02;;;;;;;10.80;2.40;;;;;;;;;;5034136;28;20021;-68
2023/12/22 04:40:28;;;;;;;11.37;2.00;;;;;;;;;;5035202;28;20021;-71
2023/12/22 04:42:53;;;;;;;5.50;1.60;;;;;;;;;;5035562;28;20033;-69
2023/12/22 04:45:19;;;;;;;6.93;1.10;;;;;;;;;;5017597;28;20343;-69
2023/12/22 04:47:44;;;;;;;15.60;1.77;;;;;;;;;;5035403;28;20060;-68
2023/12/22 04:50:11;;;;;;;6.80;1.13;;;;;;;;;;5017527;28;20021;-70
2023/12/22 04:52:37;;;;;;;6.40;1.20;;;;;;;;;;5035319;28;20041;-70
2023/12/22 04:55:03;;;;;;;5.10;1.20;;;;;;;;;;5035187;28;20327;-68
2023/12/22 04:57:29;;;;;;;12.37;1.93;;;;;;;;;;5035036;28;20389;-70
2023/12/22 04:59:55;;;;;;;6.07;1.37;;;;;;;;;;5017625;28;20033;-68
2023/12/22 05:02:20;;;;;;;10.50;1.57;;;;;;;;;;5017625;28;20021;-68
2023/12/22 05:04:46;;;;;;;9.97;1.50;;;;;;;;;;5035150;28;20120;-70
2023/12/22 05:07:13;;;;;;;7.37;1.23;;;;;;;;;;5017695;28;20386;-72
2023/12/22 05:09:41;;;;;;;14.37;2.23;;;;;;;;;;5032550;28;20091;-68
2023/12/22 05:12:08;;;;;;;10.83;1.83;;;;;;;;;;5035586;28;20029;-69
2023/12/22 05:14:34;;;;;;;9.50;1.90;;;;;;;;;;5035173;28;20104;-70
2023/12/22 05:16:59;;;;;;;7.93;1.83;;;;;;;;;;5033786;28;20148;-70
2023/12/22 05:19:24;;;;;;;6.10;1.80;;;;;;;;;;5034971;28;20040;-69
2023/12/22 05:21:52;;;;;;;13.30;1.53;;;;;;;;;;5034888;28;20021;-70
2023/12/22 05:24:18;;;;;;;9.83;1.37;;;;;;;;;;5017020;28;20029;-70
2023/12/22 05:26:43;;;;;;;6.83;1.60;;;;;;;;;;5035023;28;20032;-70
2023/12/22 05:29:09;;;;;;;7.73;1.37;;;;;;;;;;5035316;28;20541;-71
2023/12/22 05:31:34;;;;;;;8.37;1.30;;;;;;;;;;5035510;28;20029;-70
2023/12/22 05:34:00;;;;;;;8.57;1.23;;;;;;;;;;5017557;28;20528;-71
2023/12/22 05:36:25;;;;;;;6.63;1.20;;;;;;;;;;5034924;28;20037;-74
2023/12/22 05:38:51;;;;;;;7.10;1.97;;;;;;;;;;5032563;28;20079;-73
2023/12/22 05:41:16;;;;;;;8.23;1.07;;;;;;;;;;5032008;28;20033;-74
2023/12/22 05:43:42;;;;;;;9.03;1.50;;;;;;;;;;5030769;28;20029;-73
2023/12/22 05:46:09;;;;;;;8.33;1.60;;;;;;;;;;5031962;28;20074;-74
2023/12/22 05:48:35;;;;;;;10.00;2.10;;;;;;;;;;5030366;28;20044;-76
2023/12/22 05:51:03;;;;;;;6.10;1.50;;;;;;;;;;5031544;28;20034;-77
2023/12/22 05:53:28;;;;;;;7.37;2.00;;;;;;;;;;5030396;28;20028;-74
2023/12/22 05:55:57;;;;;;;9.80;1.60;;;;;;;;;;5030359;28;20021;-75
2023/12/22 05:58:22;;;;;;;13.07;1.87;;;;;;;;;;5031780;28;20037;-74
2023/12/22 06:00:48;;;;;;;8.23;1.40;;;;;;;;;;5032041;28;20025;-73
2023/12/22 06:03:14;;;;;;;4.47;1.23;;;;;;;;;;5037216;28;20052;-72
2023/12/22 06:05:39;;;;;;;5.20;1.00;;;;;;;;;;5034908;28;20041;-75
2023/12/22 06:08:05;;;;;;;3.53;1.30;;;;;;;;;;5031481;28;20041;-73
2023/12/22 06:10:31;;;;;;;6.27;1.60;;;;;;;;;;5031563;28;20064;-75
2023/12/22 06:12:57;;;;;;;3.77;1.17;;;;;;;;;;5013619;28;20057;-76
2023/12/22 06:15:23;;;;;;;10.37;1.43;;;;;;;;;;5013469;28;20029;-76
2023/12/22 06:17:49;;;;;;;6.67;1.30;;;;;;;;;;5031855;28;20036;-76
2023/12/22 06:20:14;;;;;;;4.10;0.70;;;;;;;;;;5051269;28;20464;-74
2023/12/22 06:22:40;;;;;;;3.20;1.00;;;;;;;;;;5033190;28;20021;-76
2023/12/22 06:25:07;;;;;;;5.03;1.03;;;;;;;;;;5051465;28;20064;-75
2023/12/22 06:27:37;;;;;;;3.90;0.60;;;;;;;;;;5032911;28;20052;-75
2023/12/22 06:30:04;;;;;;;8.30;1.63;;;;;;;;;;5032889;28;20025;-75
2023/12/22 06:32:30;;;;;;;2.63;0.90;;;;;;;;;;5024605;28;20029;-75
2023/12/22 06:34:55;;;;;;;6.93;0.77;;;;;;;;;;5031247;28;20025;-75
2023/12/22 06:37:21;;;;;;;5.37;1.50;;;;;;;;;;5013067;28;20501;-77
2023/12/22 06:39:46;;;;;;;3.47;1.47;;;;;;;;;;5031353;28;20441;-75
2023/12/22 06:42:13;;;;;;;1.13;0.60;;;;;;;;;;5031124;28;20032;-78
2023/12/22 06:44:42;;;;;;;2.47;0.93;;;;;;;;;;5012976;28;20061;-75
2023/12/22 06:47:07;;;;;;;8.23;1.63;;;;;;;;;;5045266;28;20439;-75
2023/12/22 06:49:33;;;;;;;1.07;0.53;;;;;;;;;;5050416;28;20033;-74
2023/12/22 06:51:59;;;;;;;7.80;0.93;;;;;;;;;;5032114;28;20036;-76
2023/12/22 06:54:25;;;;;;;3.30;0.93;;;;;;;;;;5050572;28;20029;-73
2023/12/22 06:56:50;;;;;;;2.47;1.00;;;;;;;;;;5032256;28;20144;-75
2023/12/22 06:59:16;;;;;;;3.77;1.20;;;;;;;;;;5048881;28;20029;-71
2023/12/22 07:01:41;;;;;;;4.77;1.07;;;;;;;;;;5030524;28;20055;-72
2023/12/22 07:04:07;;;;;;;2.83;1.27;;;;;;;;;;5031183;28;20167;-77
2023/12/22 07:06:37;;;;;;;5.70;1.30;;;;;;;;;;5031553;28;20048;-75
2023/12/22 07:09:15;;;;;;;1.07;0.80;;;;;;;;;;5031672;28;20238;-73
2023/12/22 07:11:45;;;;;;;8.00;1.83;;;;;;;;;;5013590;28;20029;-75
2023/12/22 07:14:11;;;;;;;4.63;0.83;;;;;;;;;;5016690;28;20045;-74
2023/12/22 07:16:37;;;;;;;2.67;0.60;;;;;;;;;;5030203;28;20047;-77
2023/12/22 07:19:04;;;;;;;2.83;1.30;;;;;;;;;;5030584;28;20064;-76
2023/12/22 07:21:37;;;;;;;3.67;1.07;;;;;;;;;;5031095;28;20068;-74
2023/12/22 07:24:03;;;;;;;1.03;0.80;;;;;;;;;;5014538;28;20045;-75
2023/12/22 07:26:28;;;;;;;3.40;1.13;;;;;;;;;;5030230;28;20033;-73
2023/12/22 07:28:54;;;;;;;5.60;1.40;;;;;;;;;;5022721;28;20036;-75
2023/12/22 07:31:20;;;;;;;4.67;1.30;;;;;;;;;;5032886;28;20061;-72
2023/12/22 07:33:47;;;;;;;4.27;0.93;;;;;;;;;;5032166;28;20033;-75
2023/12/22 07:36:13;;;;;;;7.03;1.50;;;;;;;;;;5014572;28;20096;-75
2023/12/22 07:38:39;;;;;;;5.20;1.10;;;;;;;;;;5038710;28;20043;-74
2023/12/22 07:41:05;;;;;;;3.77;1.03;;;;;;;;;;5042444;28;20017;-71
2023/12/22 07:43:31;;;;;;;5.33;1.10;;;;;;;;;;5030494;28;20120;-73
2023/12/22 07:45:57;;;;;;;6.23;1.10;;;;;;;;;;5029994;28;20068;-74
2023/12/22 07:48:26;;;;;;;6.93;1.13;;;;;;;;;;5029885;28;20048;-73
2023/12/22 07:50:51;;;;;;;3.97;1.00;;;;;;;;;;5031006;28;20126;-76
2023/12/22 07:53:17;;;;;;;2.57;0.73;;;;;;;;;;5030830;28;20029;-74
2023/12/22 07:55:44;;;;;;;3.33;0.60;;;;;;;;;;5030104;28;20029;-72
2023/12/22 07:58:10;;;;;;;4.27;0.87;;;;;;;;;;5029153;28;20041;-74
2023/12/22 08:00:36;;;;;;;7.27;1.27;;;;;;;;;;5031017;28;20214;-75
2023/12/22 08:03:03;;;;;;;4.73;0.83;;;;;;;;;;5028792;28;20084;-75
2023/12/22 08:05:29;;;;;;;1.87;1.13;;;;;;;;;;5030624;28;20037;-74
2023/12/22 08:07:55;;;;;;;2.67;1.20;;;;;;;;;;5029041;28;20067;-76
2023/12/22 08:10:22;;;;;;;5.23;1.23;;;;;;;;;;5030162;28;20626;-72
2023/12/22 08:12:48;;;;;;;2.90;0.80;;;;;;;;;;5030301;28;20517;-76
2023/12/22 08:15:13;;;;;;;4.63;0.70;;;;;;;;;;5012606;28;20037;-74
2023/12/22 08:17:52;;;;;;;2.93;1.03;;;;;;;;;;5030040;28;20418;-72
2023/12/22 08:20:19;;;;;;;2.50;0.90;;;;;;;;;;5012265;28;20029;-75
2023/12/22 08:22:48;;;;;;;6.87;1.10;;;;;;;;;;4996071;28;20112;-73
2023/12/22 08:25:14;;;;;;;7.43;0.87;;;;;;;;;;5017130;28;20114;-76
2023/12/22 08:27:41;;;;;;;3.20;0.97;;;;;;;;;;5002680;28;20038;-74
2023/12/22 08:30:08;;;;;;;19.03;1.50;;;;;;;;;;5030207;28;20512;-74
2023/12/22 08:32:34;;;;;;;2.00;0.63;;;;;;;;;;4996006;28;20030;-74
2023/12/22 08:34:59;;;;;;;7.97;1.23;;;;;;;;;;5031125;28;20033;-76
2023/12/22 08:37:25;;;;;;;4.53;1.30;;;;;;;;;;5030118;28;20026;-73
2023/12/22 08:39:51;;;;;;;2.23;0.53;;;;;;;;;;5021899;28;20029;-75
2023/12/22 08:42:17;;;;;;;4.50;1.53;;;;;;;;;;5029441;28;20025;-74
2023/12/22 08:44:43;;;;;;;3.20;1.23;;;;;;;;;;5028335;28;20084;-74
2023/12/22 08:47:08;;;;;;;1.27;0.80;;;;;;;;;;5031264;28;20053;-77
2023/12/22 08:49:34;;;;;;;6.97;1.73;;;;;;;;;;5030957;28;20478;-76
2023/12/22 08:52:00;;;;;;;7.37;1.23;;;;;;;;;;5030933;28;20037;-73
2023/12/22 08:54:26;;;;;;;4.20;0.80;;;;;;;;;;5012872;28;20239;-73
2023/12/22 08:56:52;;;;;;;3.23;1.20;;;;;;;;;;5030245;28;20030;-75
2023/12/22 08:59:19;;;;;;;1.77;0.87;;;;;;;;;;5030203;28;20483;-73
2023/12/22 09:01:45;;;;;;;1.53;1.03;;;;;;;;;;5012223;28;20056;-75
2023/12/22 09:04:12;;;;;;;3.50;1.20;;;;;;;;;;5030234;28;20170;-73
2023/12/22 09:06:38;;;;;;;2.23;1.10;;;;;;;;;;5012920;28;20072;-76
2023/12/22 09:09:04;;;;;;;3.23;0.90;;;;;;;;;;5012310;28;20526;-74
2023/12/22 09:11:30;;;;;;;7.37;0.90;;;;;;;;;;5012501;28;20417;-73
2023/12/22 09:13:55;;;;;;;3.13;1.00;;;;;;;;;;5031774;28;20052;-72
2023/12/22 09:16:22;;;;;;;2.23;0.80;;;;;;;;;;5032456;28;20025;-73
2023/12/22 09:18:49;;;;;;;1.53;0.73;;;;;;;;;;5033687;28;20035;-75
2023/12/22 09:21:17;;;;;;;1.47;0.93;;;;;;;;;;5033138;28;20473;-75
2023/12/22 09:23:46;;;;;;;4.80;1.93;;;;;;;;;;5032437;28;20055;-73
2023/12/22 09:26:13;;;;;;;3.20;1.33;;;;;;;;;;5034008;28;20105;-73
2023/12/22 09:28:38;;;;;;;8.10;1.30;;;;;;;;;;5032792;28;20508;-74
2023/12/22 09:31:09;;;;;;;6.07;2.00;;;;;;;;;;5033004;28;20040;-74
2023/12/22 09:33:35;;;;;;;3.30;1.20;;;;;;;;;;5032862;28;20508;-76
2023/12/22 09:36:01;;;;;;;3.57;1.30;;;;;;;;;;5033903;28;20025;-73
2023/12/22 09:38:27;;;;;;;2.97;1.47;;;;;;;;;;5031394;28;20025;-73
2023/12/22 09:40:54;;;;;;;5.37;1.13;;;;;;;;;;5032700;28;20113;-74
2023/12/22 09:43:20;;;;;;;8.40;1.40;;;;;;;;;;5032747;28;20146;-74
2023/12/22 09:45:53;;;;;;;6.10;1.60;;;;;;;;;;5031059;28;20124;-74
2023/12/22 09:48:26;;;;;;;1.43;0.80;;;;;;;;;;5031888;28;20037;-73
2023/12/22 09:50:53;;;;;;;1.97;0.70;;;;;;;;;;5031511;28;20137;-74
2023/12/22 09:53:20;;;;;;;5.00;1.07;;;;;;;;;;5015099;28;20029;-74
2023/12/22 09:55:48;;;;;;;3.33;1.23;;;;;;;;;;5032198;28;20104;-73
2023/12/22 09:58:16;;;;;;;3.97;1.17;;;;;;;;;;5006937;28;20037;-75
2023/12/22 10:00:42;;;;;;;7.77;1.10;;;;;;;;;;5041139;28;20041;-75
2023/12/22 10:03:10;;;;;;;3.57;0.83;;;;;;;;;;5032769;28;20076;-74
2023/12/22 10:05:36;;;;;;;0.90;0.50;;;;;;;;;;5014628;28;20032;-72
2023/12/22 10:08:04;;;;;;;0.90;0.43;;;;;;;;;;5031834;28;20041;-74
2023/12/22 10:10:30;;;;;;;0.30;0.30;;;;;;;;;;5032273;28;20091;-73
2023/12/22 10:12:59;;;;;;;0.97;0.47;;;;;;;;;;4998058;28;20191;-75
2023/12/22 10:15:26;;;;;;;0.97;0.20;;;;;;;;;;5014325;28;20535;-72
2023/12/22 10:17:54;;;;;;;0.63;0.47;;;;;;;;;;5014442;28;20115;-74
2023/12/22 10:20:22;;;;;;;0.63;0.53;;;;;;;;;;5031659;28;20107;-74
2023/12/22 10:22:48;;;;;;;1.10;0.30;;;;;;;;;;5032070;28;20133;-73
2023/12/22 10:25:17;;;;;;;2.53;0.30;;;;;;;;;;5018331;28;20120;-72
2023/12/22 10:27:43;;;;;;;0.17;0.17;;;;;;;;;;5032034;28;20044;-73
2023/12/22 10:30:10;;;;;;;1.90;0.37;;;;;;;;;;5031791;28;20465;-73
2023/12/22 10:32:42;;;;;;;0.20;0.20;;;;;;;;;;5017257;28;20048;-75
2023/12/22 10:35:12;;;;;;;0.68;0.30;;;;;;;;;;5014819;28;20033;-71
2023/12/22 10:37:37;;;;;;;0.23;0.23;;;;;;;;;;5015154;28;20124;-74
2023/12/22 10:40:09;;;;;;;0.40;0.40;;;;;;;;;;5031998;28;20036;-71
2023/12/22 10:42:35;;;;;;;5.17;0.73;;;;;;;;;;5032050;28;20100;-74
2023/12/22 10:45:03;;;;;;;0.57;0.37;;;;;;;;;;5014223;28;20104;-72
2023/12/22 10:47:29;;;;;;;0.30;0.30;;;;;;;;;;5032201;28;20029;-71
2023/12/22 10:49:55;;;;;;;3.13;0.40;;;;;;;;;;5031077;28;20112;-72
2023/12/22 10:52:21;;;;;;;0.37;0.37;;;;;;;;;;5031292;28;20112;-72
2023/12/22 10:54:49;;;;;;;0.20;0.20;;;;;;;;;;4998078;28;20486;-73
2023/12/22 10:57:19;;;;;;;1.20;0.30;;;;;;;;;;5013511;28;20117;-72
2023/12/22 10:59:46;;;;;;;0.60;0.47;;;;;;;;;;5013906;28;20500;-72
2023/12/22 11:02:23;;;;;;;0.47;0.47;;;;;;;;;;5031570;28;20052;-73
2023/12/22 11:05:10;;;;;;;1.40;0.43;;;;;;;;;;4997873;28;20434;-74
2023/12/22 11:07:37;;;;;;;0.67;0.40;;;;;;;;;;5029908;28;20471;-71
2023/12/22 11:10:06;;;;;;;0.37;0.37;;;;;;;;;;5030713;28;20025;-71
2023/12/22 11:12:36;;;;;;;0.57;0.30;;;;;;;;;;5030863;28;20034;-72
2023/12/22 11:15:06;;;;;;;1.23;0.40;;;;;;;;;;5031358;28;20124;-72
2023/12/22 11:17:33;;;;;;;1.20;0.50;;;;;;;;;;5030974;28;20059;-71
2023/12/22 11:20:07;;;;;;;0.23;0.23;;;;;;;;;;5013316;28;20116;-72
2023/12/22 11:22:35;;;;;;;2.37;0.50;;;;;;;;;;5039212;28;20056;-72
2023/12/22 11:25:02;;;;;;;1.13;0.50;;;;;;;;;;5049560;28;20033;-72
2023/12/22 11:27:29;;;;;;;1.67;0.70;;;;;;;;;;5032926;28;20032;-72
2023/12/22 11:29:56;;;;;;;2.50;1.13;;;;;;;;;;5050754;28;20088;-72
2023/12/22 11:32:22;;;;;;;2.77;0.63;;;;;;;;;;5050592;28;20032;-74
2023/12/22 11:34:48;;;;;;;1.80;0.70;;;;;;;;;;5029486;28;20092;-73
2023/12/22 11:37:16;;;;;;;0.63;0.60;;;;;;;;;;5012270;28;20108;-73
2023/12/22 11:39:43;;;;;;;2.40;1.00;;;;;;;;;;4996170;28;20481;-72
2023/12/22 11:42:25;;;;;;;0.70;0.60;;;;;;;;;;5012998;28;20025;-71
2023/12/22 11:44:52;;;;;;;;;;;;;;;;;;5031179;28;20025;-72
2023/12/22 11:47:22;;;;;;;1.43;0.73;;;;;;;;;;5012779;28;19920;-72
2023/12/22 11:49:52;;;;;;;1.57;1.10;;;;;;;;;;5018683;28;20029;-74
2023/12/22 11:52:24;;;;;;;1.50;0.90;;;;;;;;;;5031031;28;20026;-73
2023/12/22 11:54:54;;;;;;;0.63;0.63;;;;;;;;;;5037565;28;20029;-71
2023/12/22 11:57:38;;;;;;;0.87;0.87;;;;;;;;;;5037209;28;20158;-73
2023/12/22 12:00:11;;;;;;;1.90;0.93;;;;;;;;;;5031980;28;20025;-75
2023/12/22 12:02:39;;;;;;;2.17;0.80;;;;;;;;;;5029293;28;20025;-73
2023/12/22 12:05:08;;;;;;;1.23;1.13;;;;;;;;;;5014036;28;20512;-71
2023/12/22 12:07:44;;;;;;;1.27;1.13;;;;;;;;;;4995570;28;20091;-69
2023/12/22 12:10:37;;;;;;;3.03;1.30;;;;;;;;;;5012147;28;20032;-70
2023/12/22 12:13:10;;;;;;;6.67;1.47;;;;;;;;;;5030297;28;20374;-69
2023/12/22 12:15:37;;;;;;;2.20;1.40;;;;;;;;;;5011808;28;20079;-70
2023/12/22 12:18:04;;;;;;;4.37;1.37;;;;;;;;;;5040954;28;20039;-69
2023/12/22 12:20:30;;;;;;;5.37;1.57;;;;;;;;;;5050099;28;20025;-69
2023/12/22 12:22:56;;;;;;;8.87;1.87;;;;;;;;;;5031386;28;20504;-68
2023/12/22 12:25:29;;;;;;;6.00;1.73;;;;;;;;;;5049801;28;20079;-69
2023/12/22 12:28:06;;;;;;;2.83;1.40;;;;;;;;;;5031258;28;20032;-71
2023/12/22 12:30:32;;;;;;;10.00;2.30;;;;;;;;;;5031511;28;20028;-70
2023/12/22 12:33:09;;;;;;;3.50;1.30;;;;;;;;;;5030970;28;20037;-68
2023/12/22 12:35:36;;;;;;;6.33;1.70;;;;;;;;;;5031752;28;20051;-71
2023/12/22 12:38:04;;;;;;;10.67;2.10;;;;;;;;;;5031790;28;20029;-72
2023/12/22 12:40:32;;;;;;;12.53;2.47;;;;;;;;;;5032472;28;20037;-70
2023/12/22 12:42:58;;;;;;;4.67;1.57;;;;;;;;;;5049579;28;20107;-70
2023/12/22 12:45:25;;;;;;;8.43;1.33;;;;;;;;;;5027233;28;20396;-70
2023/12/22 12:47:58;;;;;;;5.20;1.13;;;;;;;;;;4996032;28;20030;-69
2023/12/22 12:50:25;;;;;;;10.90;2.40;;;;;;;;;;5016344;28;20083;-69
2023/12/22 12:52:55;;;;;;;7.33;1.20;;;;;;;;;;5033412;28;20025;-70
2023/12/22 12:55:21;;;;;;;3.07;0.90;;;;;;;;;;5016610;28;20388;-69
2023/12/22 12:57:51;;;;;;;4.53;0.80;;;;;;;;;;5015856;28;20033;-68
2023/12/22 13:00:36;;;;;;;9.17;0.90;;;;;;;;;;5028617;28;20460;-70
2023/12/22 13:03:05;;;;;;;2.67;0.87;;;;;;;;;;5033993;28;20140;-69
2023/12/22 13:05:32;;;;;;;8.80;1.30;;;;;;;;;;5053354;28;20445;-68
2023/12/22 13:08:11;;;;;;;6.10;1.00;;;;;;;;;;5053230;28;20029;-69
2023/12/22 13:10:37;;;;;;;4.83;1.57;;;;;;;;;;5035047;28;20025;-71
2023/12/22 13:13:03;;;;;;;11.40;3.20;;;;;;;;;;5050828;28;20086;-69
2023/12/22 13:15:29;;;;;;;2.33;1.07;;;;;;;;;;5015255;28;20462;-70
2023/12/22 13:17:55;;;;;;;5.60;1.00;;;;;;;;;;4998920;28;20037;-68
2023/12/22 13:20:21;;;;;;;2.50;0.60;;;;;;;;;;5015388;28;20041;-69
2023/12/22 13:22:47;;;;;;;4.80;1.00;;;;;;;;;;4998999;28;20056;-68
2023/12/22 13:25:12;;;;;;;3.33;0.93;;;;;;;;;;5015297;28;20453;-68
2023/12/22 13:27:48;;;;;;;4.73;1.43;;;;;;;;;;5033780;28;20029;-73
2023/12/22 13:30:15;;;;;;;4.77;1.03;;;;;;;;;;5033213;28;20040;-71
2023/12/22 13:32:41;;;;;;;7.87;1.43;;;;;;;;;;5015056;28;20072;-70
2023/12/22 13:35:09;;;;;;;7.93;1.37;;;;;;;;;;5015230;28;20505;-70
2023/12/22 13:37:40;;;;;;;2.27;1.33;;;;;;;;;;5015159;28;20053;-69
2023/12/22 13:40:10;;;;;;;9.10;1.52;;;;;;;;;;5033060;28;20029;-70
2023/12/22 13:42:37;;;;;;;6.53;0.73;;;;;;;;;;5033133;28;20079;-69
2023/12/22 13:45:03;;;;;;;3.97;0.80;;;;;;;;;;5015003;28;20017;-70
2023/12/22 13:47:29;;;;;;;3.20;1.00;;;;;;;;;;5032563;28;20476;-68
2023/12/22 13:49:55;;;;;;;3.10;0.87;;;;;;;;;;5034273;28;20029;-68
2023/12/22 13:52:34;;;;;;;5.13;1.27;;;;;;;;;;4998768;28;20527;-69
2023/12/22 13:55:02;;;;;;;2.40;0.87;;;;;;;;;;5032905;28;20075;-70
2023/12/22 13:57:28;;;;;;;2.50;0.67;;;;;;;;;;5015381;28;20541;-69
2023/12/22 13:59:55;;;;;;;5.37;2.00;;;;;;;;;;5032191;28;20025;-67
2023/12/22 14:02:22;;;;;;;2.53;0.93;;;;;;;;;;5032680;28;20033;-69
2023/12/22 14:04:49;;;;;;;5.40;1.00;;;;;;;;;;4982461;28;20058;-72
2023/12/22 14:07:15;;;;;;;4.00;1.63;;;;;;;;;;5031725;28;20033;-69
2023/12/22 14:09:41;;;;;;;3.63;1.57;;;;;;;;;;5014338;28;20438;-71
2023/12/22 14:12:07;;;;;;;2.97;1.03;;;;;;;;;;5014536;28;20433;-69
2023/12/22 14:14:33;;;;;;;2.03;1.00;;;;;;;;;;5033067;28;20124;-69
2023/12/22 14:16:59;;;;;;;4.43;1.20;;;;;;;;;;5021618;28;20033;-70
2023/12/22 14:19:25;;;;;;;3.47;1.10;;;;;;;;;;5031662;28;20385;-72
2023/12/22 14:21:51;;;;;;;3.37;1.30;;;;;;;;;;5032928;28;20029;-71
2023/12/22 14:24:16;;;;;;;2.33;0.90;;;;;;;;;;5031363;28;20021;-70
2023/12/22 14:26:55;;;;;;;3.50;1.17;;;;;;;;;;5032918;28;20040;-69
2023/12/22 14:29:24;;;;;;;4.83;1.30;;;;;;;;;;5032376;28;20400;-70
2023/12/22 14:31:51;;;;;;;4.97;1.20;;;;;;;;;;5018426;28;20113;-70
2023/12/22 14:34:17;;;;;;;3.40;1.07;;;;;;;;;;5029957;28;20025;-70
2023/12/22 14:36:44;;;;;;;3.00;1.10;;;;;;;;;;5033177;28;20029;-69
2023/12/22 14:39:12;;;;;;;4.40;1.07;;;;;;;;;;5033194;28;20108;-70
2023/12/22 14:41:40;;;;;;;1.93;1.10;;;;;;;;;;5032067;28;20108;-69